createdAt,value
2022-12-31T00:01:48.280Z,1.10
2022-12-31T00:04:15.893Z,1.20
2022-12-31T00:06:43.456Z,2.10
2022-12-31T00:09:11.228Z,1.20
2022-12-31T00:11:39.290Z,0.97
2022-12-31T00:14:10.235Z,0.73
2022-12-31T00:16:40.399Z,2.80
2022-12-31T00:19:13.651Z,1.80
2022-12-31T00:21:41.270Z,2.93
2022-12-31T00:24:09.454Z,1.17
2022-12-31T00:26:37.118Z,11.57
2022-12-31T00:29:05.586Z,1.00
2022-12-31T00:31:36.231Z,1.60
2022-12-31T00:34:04.275Z,0.90
2022-12-31T00:36:33.494Z,1.07
2022-12-31T00:39:02.125Z,0.97
2022-12-31T00:41:29.896Z,1.00
2022-12-31T00:43:57.743Z,1.77
2022-12-31T00:46:26.049Z,0.70
2022-12-31T00:48:55.583Z,1.00
2022-12-31T00:51:28.024Z,1.30
2022-12-31T00:53:55.887Z,0.80
2022-12-31T00:56:27.401Z,1.33
2022-12-31T00:58:55.046Z,1.40
2022-12-31T01:01:24.363Z,1.00
2022-12-31T01:03:53.440Z,1.40
2022-12-31T01:06:22.754Z,1.17
2022-12-31T01:08:51.095Z,1.57
2022-12-31T01:11:22.834Z,1.10
2022-12-31T01:13:53.030Z,0.80
2022-12-31T01:16:23.408Z,1.00
2022-12-31T01:18:51.445Z,0.70
2022-12-31T01:21:19.715Z,1.17
2022-12-31T01:23:48.909Z,1.37
2022-12-31T01:26:18.025Z,2.30
2022-12-31T01:28:45.590Z,0.90
2022-12-31T01:31:15.090Z,1.20
2022-12-31T01:33:43.110Z,1.10
2022-12-31T01:36:12.751Z,0.77
2022-12-31T01:38:40.536Z,1.97
2022-12-31T01:41:12.538Z,0.90
2022-12-31T01:43:49.474Z,1.13
2022-12-31T01:46:24.481Z,1.23
2022-12-31T01:48:54.288Z,0.93
2022-12-31T01:51:22.158Z,1.00
2022-12-31T01:53:50.359Z,0.90
2022-12-31T01:56:19.996Z,1.00
2022-12-31T01:58:50.638Z,0.83
2022-12-31T02:01:21.429Z,1.43
2022-12-31T02:03:49.075Z,1.00
2022-12-31T02:06:20.936Z,0.90
2022-12-31T02:08:48.815Z,1.53
2022-12-31T02:11:28.678Z,1.10
2022-12-31T02:13:58.906Z,1.63
2022-12-31T02:16:32.639Z,1.00
2022-12-31T02:19:07.495Z,1.40
2022-12-31T02:21:57.780Z,2.80
2022-12-31T02:24:40.994Z,1.17
2022-12-31T02:27:14.026Z,0.90
2022-12-31T02:30:05.932Z,1.03
2022-12-31T02:32:39.977Z,2.40
2022-12-31T02:35:11.927Z,1.60
2022-12-31T02:37:40.700Z,1.83
2022-12-31T02:40:11.308Z,3.60
2022-12-31T02:42:38.780Z,6.60
2022-12-31T02:45:09.260Z,1.30
2022-12-31T02:47:49.613Z,1.00
2022-12-31T02:50:27.696Z,2.17
2022-12-31T02:52:59.944Z,1.20
2022-12-31T02:55:35.116Z,1.20
2022-12-31T02:58:09.139Z,2.30
2022-12-31T03:01:00.373Z,1.90
2022-12-31T03:03:28.669Z,1.20
2022-12-31T03:05:56.793Z,1.07
2022-12-31T03:08:25.273Z,1.50
2022-12-31T03:10:52.961Z,1.43
2022-12-31T03:13:19.560Z,1.87
2022-12-31T03:15:48.429Z,1.20
2022-12-31T03:18:17.217Z,2.43
2022-12-31T03:21:03.885Z,3.90
2022-12-31T03:23:34.170Z,0.90
2022-12-31T03:26:01.135Z,1.53
2022-12-31T03:28:30.538Z,3.70
2022-12-31T03:31:01.396Z,3.73
2022-12-31T03:33:32.725Z,2.50
2022-12-31T03:36:00.239Z,3.00
2022-12-31T03:38:27.715Z,1.50
2022-12-31T03:40:55.217Z,1.67
2022-12-31T03:43:22.919Z,1.73
2022-12-31T03:45:52.309Z,3.80
2022-12-31T03:48:21.741Z,1.00
2022-12-31T03:50:49.325Z,1.50
2022-12-31T03:53:17.204Z,4.27
2022-12-31T03:55:44.915Z,1.00
2022-12-31T03:58:12.477Z,1.50
2022-12-31T04:00:40.016Z,3.40
2022-12-31T04:03:07.609Z,1.20
2022-12-31T04:05:36.518Z,3.80
2022-12-31T04:08:04.068Z,1.00
2022-12-31T04:10:32.012Z,7.23
2022-12-31T04:13:02.377Z,3.00
2022-12-31T04:15:29.961Z,2.87
2022-12-31T04:17:57.435Z,2.90
2022-12-31T04:20:25.028Z,1.90
2022-12-31T04:22:53.869Z,2.47
2022-12-31T04:25:21.428Z,1.17
2022-12-31T04:27:48.889Z,1.37
2022-12-31T04:30:16.577Z,2.17
2022-12-31T04:32:44.085Z,2.03
2022-12-31T04:35:12.249Z,1.70
2022-12-31T04:37:39.919Z,1.80
2022-12-31T04:40:10.001Z,3.07
2022-12-31T04:42:37.664Z,2.00
2022-12-31T04:45:06.064Z,2.60
2022-12-31T04:47:33.561Z,1.50
2022-12-31T04:50:01.039Z,3.60
2022-12-31T04:52:28.512Z,4.20
2022-12-31T04:54:56.001Z,2.17
2022-12-31T04:57:24.833Z,1.50
2022-12-31T04:59:52.316Z,1.40
2022-12-31T05:02:19.977Z,2.13
2022-12-31T05:04:47.593Z,2.00
2022-12-31T05:07:15.095Z,3.20
2022-12-31T05:09:42.579Z,1.17
2022-12-31T05:12:10.067Z,1.10
2022-12-31T05:14:38.893Z,3.17
2022-12-31T05:17:06.372Z,1.37
2022-12-31T05:19:33.875Z,2.93
2022-12-31T05:22:19.175Z,1.20
2022-12-31T05:24:46.655Z,1.57
2022-12-31T05:27:14.105Z,1.57
2022-12-31T05:29:42.893Z,1.60
2022-12-31T05:32:10.359Z,4.63
2022-12-31T05:34:37.830Z,0.90
2022-12-31T05:37:05.329Z,0.90
2022-12-31T05:39:32.824Z,2.57
2022-12-31T05:42:00.281Z,1.53
2022-12-31T05:44:27.857Z,1.40
2022-12-31T05:46:56.680Z,1.37
2022-12-31T05:49:24.215Z,0.90
2022-12-31T05:51:51.656Z,2.77
2022-12-31T05:54:19.309Z,1.67
2022-12-31T05:56:46.786Z,0.90
2022-12-31T05:59:14.263Z,0.80
2022-12-31T06:01:41.817Z,0.97
2022-12-31T06:04:10.767Z,2.00
2022-12-31T06:06:38.234Z,1.60
2022-12-31T06:09:05.793Z,2.57
2022-12-31T06:11:33.303Z,1.47
2022-12-31T06:14:00.772Z,1.97
2022-12-31T06:16:28.377Z,1.57
2022-12-31T06:18:56.208Z,0.93
2022-12-31T06:21:25.022Z,0.97
2022-12-31T06:23:52.495Z,1.90
2022-12-31T06:26:19.997Z,1.13
2022-12-31T06:28:47.456Z,1.53
2022-12-31T06:31:15.868Z,6.23
2022-12-31T06:33:43.978Z,0.80
2022-12-31T06:36:14.293Z,1.30
2022-12-31T06:38:44.205Z,2.00
2022-12-31T06:41:13.031Z,1.63
2022-12-31T06:43:41.523Z,2.70
2022-12-31T06:46:11.192Z,2.30
2022-12-31T06:48:39.335Z,1.37
2022-12-31T06:51:13.406Z,1.80
2022-12-31T06:53:45.880Z,1.40
2022-12-31T06:56:16.908Z,1.53
2022-12-31T06:58:45.861Z,1.47
2022-12-31T07:01:30.477Z,1.00
2022-12-31T07:04:02.050Z,2.50
2022-12-31T07:06:32.400Z,1.70
2022-12-31T07:09:06.553Z,0.83
2022-12-31T07:11:40.205Z,1.90
2022-12-31T07:14:19.461Z,2.13
2022-12-31T07:16:54.354Z,1.67
2022-12-31T07:19:29.998Z,1.27
2022-12-31T07:21:59.486Z,1.70
2022-12-31T07:24:29.286Z,1.87
2022-12-31T07:27:13.006Z,1.10
2022-12-31T07:29:49.691Z,1.67
2022-12-31T07:32:26.847Z,2.07
2022-12-31T07:35:01.603Z,1.20
2022-12-31T07:37:35.717Z,1.37
2022-12-31T07:40:12.363Z,0.90
2022-12-31T07:42:43.484Z,1.70
2022-12-31T07:45:16.035Z,2.97
2022-12-31T07:47:44.063Z,1.23
2022-12-31T07:50:15.351Z,2.03
2022-12-31T07:52:43.553Z,2.33
2022-12-31T07:55:12.597Z,1.10
2022-12-31T07:57:48.126Z,1.67
2022-12-31T08:00:16.937Z,3.73
2022-12-31T08:02:58.144Z,1.30
2022-12-31T08:05:29.355Z,1.57
2022-12-31T08:08:00.294Z,2.37
2022-12-31T08:10:34.530Z,1.93
2022-12-31T08:13:04.535Z,2.60
2022-12-31T08:15:32.566Z,1.70
2022-12-31T08:18:00.384Z,1.60
2022-12-31T08:20:28.205Z,2.77
2022-12-31T08:23:11.170Z,2.23
2022-12-31T08:25:48.514Z,3.87
2022-12-31T08:28:20.247Z,2.10
2022-12-31T08:30:55.104Z,1.23
2022-12-31T08:33:27.106Z,2.77
2022-12-31T08:36:05.142Z,1.30
2022-12-31T08:38:35.674Z,5.50
2022-12-31T08:41:11.963Z,2.07
2022-12-31T08:43:50.178Z,1.43
2022-12-31T08:46:20.626Z,1.30
2022-12-31T08:48:49.322Z,4.60
2022-12-31T08:51:21.106Z,1.30
2022-12-31T08:53:49.098Z,1.60
2022-12-31T08:56:26.543Z,2.10
2022-12-31T08:59:00.227Z,1.70
2022-12-31T09:01:29.417Z,3.23
2022-12-31T09:04:04.802Z,1.83
2022-12-31T09:06:35.119Z,1.83
2022-12-31T09:09:07.367Z,1.60
2022-12-31T09:11:50.891Z,1.80
2022-12-31T09:14:33.131Z,1.97
2022-12-31T09:17:04.697Z,3.53
2022-12-31T09:19:32.147Z,4.20
2022-12-31T09:22:00.174Z,1.50
2022-12-31T09:24:28.308Z,1.40
2022-12-31T09:27:05.711Z,2.00
2022-12-31T09:29:42.517Z,2.90
2022-12-31T09:32:19.113Z,1.63
2022-12-31T09:34:51.071Z,1.40
2022-12-31T09:37:23.283Z,2.60
2022-12-31T09:39:51.047Z,2.30
2022-12-31T09:42:48.308Z,4.40
2022-12-31T09:45:45.734Z,2.30
2022-12-31T09:48:47.022Z,2.80
2022-12-31T09:51:25.838Z,1.40
2022-12-31T09:54:24.927Z,1.93
2022-12-31T09:57:13.440Z,1.93
2022-12-31T09:59:47.581Z,1.33
2022-12-31T10:02:23.885Z,2.97
2022-12-31T10:05:00.513Z,1.70
2022-12-31T10:07:36.152Z,3.67
2022-12-31T10:10:11.657Z,1.60
2022-12-31T10:13:01.897Z,3.73
2022-12-31T10:15:38.225Z,3.03
2022-12-31T10:18:14.068Z,2.07
2022-12-31T10:20:52.542Z,1.57
2022-12-31T10:24:02.193Z,5.10
2022-12-31T10:26:42.392Z,1.87
2022-12-31T10:29:19.861Z,2.00
2022-12-31T10:31:54.592Z,1.30
2022-12-31T10:34:27.594Z,3.33
2022-12-31T10:36:56.836Z,3.00
2022-12-31T10:39:33.162Z,1.40
2022-12-31T10:42:45.103Z,2.07
2022-12-31T10:45:42.403Z,1.50
2022-12-31T10:48:38.284Z,2.73
2022-12-31T10:51:25.038Z,3.33
2022-12-31T10:54:10.699Z,3.03
2022-12-31T10:57:31.763Z,4.13
2022-12-31T11:00:26.263Z,2.47
2022-12-31T11:03:38.307Z,3.23
2022-12-31T11:06:27.117Z,3.10
2022-12-31T11:09:27.430Z,2.10
2022-12-31T11:12:02.947Z,1.20
2022-12-31T11:14:47.468Z,1.80
2022-12-31T11:17:29.546Z,1.80
2022-12-31T11:20:04.491Z,2.83
2022-12-31T11:22:43.044Z,3.10
2022-12-31T11:25:31.026Z,2.23
2022-12-31T11:28:16.059Z,2.53
2022-12-31T11:30:58.389Z,1.60
2022-12-31T11:33:34.067Z,6.27
2022-12-31T11:36:12.704Z,2.03
2022-12-31T11:38:44.321Z,2.17
2022-12-31T11:41:17.664Z,2.23
2022-12-31T11:43:52.291Z,1.53
2022-12-31T11:46:45.305Z,2.37
2022-12-31T11:49:21.612Z,2.23
2022-12-31T11:52:02.933Z,1.40
2022-12-31T11:54:51.391Z,1.73
2022-12-31T11:57:25.984Z,1.50
2022-12-31T11:59:57.041Z,1.67
2022-12-31T12:02:27.107Z,2.00
2022-12-31T12:04:56.059Z,3.50
2022-12-31T12:07:25.097Z,1.60
2022-12-31T12:09:53.993Z,2.57
2022-12-31T12:12:21.504Z,2.27
2022-12-31T12:14:53.975Z,1.83
2022-12-31T12:17:31.704Z,2.27
2022-12-31T12:20:03.142Z,1.70
2022-12-31T12:22:32.671Z,4.17
2022-12-31T12:25:05.654Z,1.20
2022-12-31T12:27:36.193Z,1.70
2022-12-31T12:30:11.618Z,2.17
2022-12-31T12:32:39.275Z,2.67
2022-12-31T12:35:17.727Z,1.30
2022-12-31T12:37:46.544Z,1.10
2022-12-31T12:40:21.940Z,3.60
2022-12-31T12:42:49.986Z,2.07
2022-12-31T12:45:19.341Z,2.50
2022-12-31T12:47:48.856Z,1.83
2022-12-31T12:50:18.004Z,2.37
2022-12-31T12:53:08.664Z,3.77
2022-12-31T12:55:42.862Z,1.90
2022-12-31T12:58:19.685Z,1.70
2022-12-31T13:00:52.453Z,3.83
2022-12-31T13:03:36.147Z,2.23
2022-12-31T13:06:15.335Z,1.10
2022-12-31T13:09:04.974Z,2.60
2022-12-31T13:11:37.926Z,2.53
2022-12-31T13:14:14.268Z,1.53
2022-12-31T13:16:46.215Z,1.80
2022-12-31T13:19:20.350Z,2.47
2022-12-31T13:21:54.162Z,1.73
2022-12-31T13:24:48.777Z,1.43
2022-12-31T13:27:21.218Z,2.70
2022-12-31T13:29:49.392Z,3.17
2022-12-31T13:32:20.036Z,1.10
2022-12-31T13:34:49.405Z,1.20
2022-12-31T13:37:26.020Z,2.00
2022-12-31T13:40:01.209Z,1.40
2022-12-31T13:42:33.711Z,1.30
2022-12-31T13:45:03.973Z,1.23
2022-12-31T13:47:35.159Z,1.47
2022-12-31T13:50:14.177Z,1.37
2022-12-31T13:52:47.455Z,1.93
2022-12-31T13:55:19.435Z,1.40
2022-12-31T13:57:50.122Z,1.93
2022-12-31T14:00:23.903Z,2.43
2022-12-31T14:02:57.978Z,1.30
2022-12-31T14:05:29.265Z,1.90
2022-12-31T14:07:59.140Z,2.00
2022-12-31T14:10:36.089Z,1.20
2022-12-31T14:13:14.176Z,1.27
2022-12-31T14:15:49.022Z,2.90
2022-12-31T14:18:24.579Z,2.60
2022-12-31T14:21:00.204Z,2.20
2022-12-31T14:23:34.893Z,1.50
2022-12-31T14:26:06.380Z,1.83
2022-12-31T14:28:44.663Z,1.73
2022-12-31T14:31:20.339Z,1.53
2022-12-31T14:33:52.975Z,1.43
2022-12-31T14:36:33.619Z,1.23
2022-12-31T14:39:13.913Z,1.63
2022-12-31T14:41:53.085Z,0.83
2022-12-31T14:44:28.460Z,1.53
2022-12-31T14:47:07.741Z,1.20
2022-12-31T14:49:42.160Z,1.30
2022-12-31T14:52:17.788Z,1.73
2022-12-31T14:54:45.443Z,2.00
2022-12-31T14:57:24.763Z,1.00
2022-12-31T14:59:53.729Z,1.70
2022-12-31T15:02:27.997Z,1.33
2022-12-31T15:05:11.121Z,1.10
2022-12-31T15:07:43.502Z,2.67
2022-12-31T15:10:16.631Z,2.80
2022-12-31T15:12:54.302Z,1.50
2022-12-31T15:15:33.139Z,2.53
2022-12-31T15:18:13.780Z,3.53
2022-12-31T15:21:10.396Z,2.90
2022-12-31T15:23:38.841Z,7.43
2022-12-31T15:26:08.421Z,4.10
2022-12-31T15:28:39.511Z,4.13
2022-12-31T15:31:18.550Z,2.93
2022-12-31T15:33:57.539Z,1.40
2022-12-31T15:36:26.731Z,1.50
2022-12-31T15:39:06.503Z,2.00
2022-12-31T15:41:42.909Z,1.47
2022-12-31T15:44:24.879Z,2.50
2022-12-31T15:46:56.360Z,1.07
2022-12-31T15:49:25.006Z,2.03
2022-12-31T15:52:00.446Z,4.20
2022-12-31T15:54:32.498Z,1.13
2022-12-31T15:57:05.649Z,1.33
2022-12-31T15:59:42.715Z,1.93
2022-12-31T16:02:21.239Z,1.60
2022-12-31T16:04:49.271Z,2.47
2022-12-31T16:07:17.109Z,2.00
2022-12-31T16:09:48.551Z,2.30
2022-12-31T16:12:20.616Z,1.57
2022-12-31T16:14:52.470Z,2.90
2022-12-31T16:17:27.798Z,1.00
2022-12-31T16:19:58.288Z,5.97
2022-12-31T16:22:28.104Z,1.60
2022-12-31T16:27:44.975Z,2.30
2022-12-31T16:30:29.414Z,2.97
2022-12-31T16:33:01.184Z,2.40
2022-12-31T16:35:30.795Z,1.30
2022-12-31T16:38:09.843Z,1.10
2022-12-31T16:40:37.462Z,2.00
2022-12-31T16:43:06.603Z,1.63
2022-12-31T16:45:37.015Z,2.60
2022-12-31T16:48:16.361Z,1.70
2022-12-31T16:50:46.664Z,2.60
2022-12-31T16:53:17.954Z,1.07
2022-12-31T16:55:52.754Z,1.87
2022-12-31T16:58:27.135Z,1.57
2022-12-31T17:00:57.336Z,1.63
2022-12-31T17:03:26.388Z,1.37
2022-12-31T17:06:00.362Z,1.47
2022-12-31T17:08:29.655Z,1.10
2022-12-31T17:10:57.522Z,2.17
2022-12-31T17:13:30.867Z,2.00
2022-12-31T17:16:00.486Z,1.70
2022-12-31T17:18:31.918Z,4.33
2022-12-31T17:21:07.961Z,1.90
2022-12-31T17:23:36.820Z,1.77
2022-12-31T17:26:10.539Z,1.83
2022-12-31T17:28:43.737Z,1.80
2022-12-31T17:31:32.043Z,1.83
2022-12-31T17:34:18.465Z,2.37
2022-12-31T17:36:56.714Z,2.60
2022-12-31T17:39:27.170Z,1.40
2022-12-31T17:42:00.427Z,1.77
2022-12-31T17:44:29.513Z,1.87
2022-12-31T17:46:59.327Z,2.03
2022-12-31T17:49:33.332Z,10.30
2022-12-31T17:52:01.217Z,3.60
2022-12-31T17:54:29.221Z,2.07
2022-12-31T17:56:57.141Z,4.73
2022-12-31T17:59:29.733Z,4.50
2022-12-31T18:02:02.235Z,2.77
2022-12-31T18:04:30.045Z,2.60
2022-12-31T18:06:57.638Z,2.47
2022-12-31T18:09:26.359Z,2.53
2022-12-31T18:11:56.947Z,4.80
2022-12-31T18:14:28.896Z,3.93
2022-12-31T18:16:56.463Z,5.73
2022-12-31T18:22:15.706Z,5.00
2022-12-31T18:24:43.331Z,5.63
2022-12-31T18:27:15.819Z,4.37
2022-12-31T18:29:43.375Z,2.97
2022-12-31T18:32:21.411Z,3.77
2022-12-31T18:34:50.623Z,5.00
2022-12-31T18:37:21.960Z,2.70
2022-12-31T18:39:50.099Z,3.00
2022-12-31T18:42:19.100Z,2.77
2022-12-31T18:44:46.970Z,4.53
2022-12-31T18:47:15.517Z,3.67
2022-12-31T18:49:44.737Z,1.60
2022-12-31T18:52:15.614Z,6.47
2022-12-31T18:54:43.369Z,1.97
2022-12-31T18:57:12.153Z,2.30
2022-12-31T18:59:39.823Z,2.93
2022-12-31T19:02:13.721Z,4.37
2022-12-31T19:04:41.392Z,4.87
2022-12-31T19:07:09.139Z,6.30
2022-12-31T19:09:46.702Z,4.50
2022-12-31T19:12:15.986Z,8.33
2022-12-31T19:14:43.587Z,5.27
2022-12-31T19:17:11.183Z,5.57
2022-12-31T19:19:38.699Z,4.27
2022-12-31T19:22:06.252Z,4.30
2022-12-31T19:24:33.823Z,3.40
2022-12-31T19:27:03.051Z,3.50
2022-12-31T19:29:30.629Z,6.17
2022-12-31T19:32:01.079Z,5.93
2022-12-31T19:34:28.768Z,7.23
2022-12-31T19:36:56.411Z,3.50
2022-12-31T19:39:23.979Z,4.70
2022-12-31T19:41:58.372Z,4.10
2022-12-31T19:44:27.980Z,3.13
2022-12-31T19:46:55.711Z,5.13
2022-12-31T19:49:23.379Z,4.07
2022-12-31T19:51:52.722Z,5.00
2022-12-31T19:54:20.399Z,6.00
2022-12-31T19:56:48.042Z,2.73
2022-12-31T19:59:17.334Z,3.90
2022-12-31T20:01:47.641Z,3.57
2022-12-31T20:04:15.341Z,3.57
2022-12-31T20:06:42.885Z,3.40
2022-12-31T20:09:12.087Z,4.97
2022-12-31T20:11:39.666Z,6.97
2022-12-31T20:14:07.239Z,4.67
2022-12-31T20:16:34.861Z,3.90
2022-12-31T20:19:04.154Z,5.33
2022-12-31T20:21:31.811Z,4.43
2022-12-31T20:24:23.915Z,4.37
2022-12-31T20:26:52.370Z,3.50
2022-12-31T20:29:20.222Z,3.73
2022-12-31T20:31:48.147Z,3.47
2022-12-31T20:34:18.609Z,3.33
2022-12-31T20:36:46.523Z,3.50
2022-12-31T20:39:15.153Z,3.30
2022-12-31T20:41:42.820Z,6.87
2022-12-31T20:44:10.707Z,2.90
2022-12-31T20:46:38.457Z,4.00
2022-12-31T20:49:06.423Z,4.90
2022-12-31T20:51:35.897Z,4.27
2022-12-31T20:54:05.257Z,4.23
2022-12-31T20:56:36.391Z,4.00
2022-12-31T20:59:04.794Z,2.60
2022-12-31T21:01:55.659Z,3.53
2022-12-31T21:04:20.460Z,3.80
2022-12-31T21:06:49.607Z,7.07
2022-12-31T21:09:17.201Z,4.40
2022-12-31T21:12:02.207Z,4.17
2022-12-31T21:14:29.793Z,4.20
2022-12-31T21:16:57.388Z,7.80
2022-12-31T21:19:24.946Z,4.63
2022-12-31T21:21:53.968Z,5.30
2022-12-31T21:24:25.744Z,6.03
2022-12-31T21:26:57.848Z,4.67
2022-12-31T21:29:27.842Z,4.17
2022-12-31T21:31:58.925Z,3.87
2022-12-31T21:34:26.576Z,3.80
2022-12-31T21:36:55.547Z,4.03
2022-12-31T21:39:23.254Z,5.27
2022-12-31T21:41:53.569Z,5.60
2022-12-31T21:44:22.349Z,17.67
2022-12-31T21:47:24.852Z,10.60
2022-12-31T21:49:38.064Z,9.87
2022-12-31T21:52:24.537Z,12.03
2022-12-31T21:55:06.098Z,13.63
2022-12-31T21:57:51.945Z,44.00
2022-12-31T22:00:42.708Z,9.60
2022-12-31T22:03:28.579Z,54.40
2022-12-31T22:06:02.862Z,118.47
2022-12-31T22:08:32.170Z,21.27
2022-12-31T22:10:59.710Z,55.67
2022-12-31T22:13:27.421Z,49.07
2022-12-31T22:16:03.917Z,7.23
2022-12-31T22:18:34.950Z,108.27
2022-12-31T22:21:04.160Z,67.87
2022-12-31T22:23:34.148Z,25.13
2022-12-31T22:26:02.205Z,36.40
2022-12-31T22:28:39.133Z,13.30
2022-12-31T22:31:08.118Z,25.50
2022-12-31T22:33:35.821Z,10.93
2022-12-31T22:36:05.579Z,4.90
2022-12-31T22:38:35.193Z,5.20
2022-12-31T22:41:07.713Z,5.23
2022-12-31T22:43:38.355Z,82.07
2022-12-31T22:46:10.707Z,6.30
2022-12-31T22:48:38.426Z,4.50
2022-12-31T22:51:06.340Z,7.00
2022-12-31T22:53:35.401Z,4.73
2022-12-31T22:56:04.978Z,3.63
2022-12-31T22:58:32.617Z,8.17
2022-12-31T23:01:00.281Z,4.33
2022-12-31T23:03:29.360Z,4.87
2022-12-31T23:05:56.908Z,15.97
2022-12-31T23:08:24.603Z,25.33
2022-12-31T23:11:02.119Z,31.80
2022-12-31T23:13:51.086Z,84.67
2022-12-31T23:16:39.602Z,113.90
2022-12-31T23:19:25.044Z,143.70
2022-12-31T23:22:10.843Z,140.97
2022-12-31T23:24:39.755Z,133.20
2022-12-31T23:27:09.303Z,111.07
2022-12-31T23:29:45.596Z,99.47
2022-12-31T23:32:14.709Z,169.17
2022-12-31T23:34:42.392Z,150.97
2022-12-31T23:37:09.918Z,157.93
2022-12-31T23:39:37.530Z,147.03
2022-12-31T23:42:05.315Z,89.23
2022-12-31T23:44:34.310Z,85.37
2022-12-31T23:47:01.878Z,87.53
2022-12-31T23:49:29.461Z,104.47
2022-12-31T23:51:57.159Z,99.03
2022-12-31T23:54:24.774Z,96.90
2022-12-31T23:56:52.388Z,83.93
2022-12-31T23:59:20.202Z,125.33
